sensor_id;sensor_type;location;lat;lon;timestamp;P1;durP1;ratioP1;P2;durP2;ratioP2
39890;SDS011;25564;53.312;9.790;2022-09-25T00:02:12;53.20;;;17.83;;
39890;SDS011;25564;53.312;9.790;2022-09-25T00:04:44;48.73;;;15.83;;
39890;SDS011;25564;53.312;9.790;2022-09-25T00:07:15;48.30;;;17.00;;
39890;SDS011;25564;53.312;9.790;2022-09-25T00:09:46;51.43;;;16.87;;
39890;SDS011;25564;53.312;9.790;2022-09-25T00:12:18;61.43;;;19.57;;
39890;SDS011;25564;53.312;9.790;2022-09-25T00:14:49;57.60;;;18.03;;
39890;SDS011;25564;53.312;9.790;2022-09-25T00:17:21;67.33;;;18.73;;
39890;SDS011;25564;53.312;9.790;2022-09-25T00:19:53;58.43;;;18.57;;
39890;SDS011;25564;53.312;9.790;2022-09-25T00:22:24;72.03;;;19.93;;
39890;SDS011;25564;53.312;9.790;2022-09-25T00:24:56;59.03;;;17.87;;
39890;SDS011;25564;53.312;9.790;2022-09-25T00:27:28;62.80;;;19.33;;
39890;SDS011;25564;53.312;9.790;2022-09-25T00:29:59;70.43;;;20.13;;
39890;SDS011;25564;53.312;9.790;2022-09-25T00:32:31;70.67;;;19.70;;
39890;SDS011;25564;53.312;9.790;2022-09-25T00:35:02;53.63;;;19.27;;
39890;SDS011;25564;53.312;9.790;2022-09-25T00:37:35;67.23;;;22.30;;
39890;SDS011;25564;53.312;9.790;2022-09-25T00:40:07;60.13;;;19.17;;
39890;SDS011;25564;53.312;9.790;2022-09-25T00:42:38;57.73;;;18.47;;
39890;SDS011;25564;53.312;9.790;2022-09-25T00:45:20;59.40;;;20.07;;
39890;SDS011;25564;53.312;9.790;2022-09-25T00:47:53;48.60;;;17.50;;
39890;SDS011;25564;53.312;9.790;2022-09-25T00:53:13;54.23;;;18.60;;
39890;SDS011;25564;53.312;9.790;2022-09-25T00:55:49;52.83;;;19.10;;
39890;SDS011;25564;53.312;9.790;2022-09-25T00:58:21;58.90;;;19.73;;
39890;SDS011;25564;53.312;9.790;2022-09-25T01:00:54;56.63;;;19.73;;
39890;SDS011;25564;53.312;9.790;2022-09-25T01:03:26;49.47;;;17.90;;
39890;SDS011;25564;53.312;9.790;2022-09-25T01:05:58;50.17;;;17.93;;
39890;SDS011;25564;53.312;9.790;2022-09-25T01:08:30;35.03;;;15.07;;
39890;SDS011;25564;53.312;9.790;2022-09-25T01:11:04;36.83;;;14.57;;
39890;SDS011;25564;53.312;9.790;2022-09-25T01:13:35;40.40;;;15.70;;
39890;SDS011;25564;53.312;9.790;2022-09-25T01:16:19;41.53;;;16.17;;
39890;SDS011;25564;53.312;9.790;2022-09-25T01:19:21;42.10;;;16.50;;
39890;SDS011;25564;53.312;9.790;2022-09-25T01:22:18;43.43;;;17.60;;
39890;SDS011;25564;53.312;9.790;2022-09-25T01:28:12;44.70;;;16.57;;
39890;SDS011;25564;53.312;9.790;2022-09-25T01:31:10;43.23;;;16.10;;
39890;SDS011;25564;53.312;9.790;2022-09-25T01:33:49;46.10;;;15.90;;
39890;SDS011;25564;53.312;9.790;2022-09-25T01:36:30;44.83;;;16.30;;
39890;SDS011;25564;53.312;9.790;2022-09-25T01:39:10;50.67;;;17.43;;
39890;SDS011;25564;53.312;9.790;2022-09-25T01:41:53;45.47;;;16.33;;
39890;SDS011;25564;53.312;9.790;2022-09-25T01:44:31;40.53;;;15.93;;
39890;SDS011;25564;53.312;9.790;2022-09-25T01:47:06;40.20;;;15.50;;
39890;SDS011;25564;53.312;9.790;2022-09-25T01:49:44;33.85;;;14.57;;
39890;SDS011;25564;53.312;9.790;2022-09-25T01:52:24;34.30;;;13.97;;
39890;SDS011;25564;53.312;9.790;2022-09-25T01:55:07;34.73;;;13.30;;
39890;SDS011;25564;53.312;9.790;2022-09-25T01:57:43;30.10;;;14.27;;
39890;SDS011;25564;53.312;9.790;2022-09-25T02:00:20;34.20;;;13.63;;
39890;SDS011;25564;53.312;9.790;2022-09-25T02:02:56;39.37;;;15.57;;
39890;SDS011;25564;53.312;9.790;2022-09-25T02:05:39;32.77;;;15.13;;
39890;SDS011;25564;53.312;9.790;2022-09-25T02:08:49;36.67;;;14.87;;
39890;SDS011;25564;53.312;9.790;2022-09-25T02:11:19;40.47;;;14.90;;
39890;SDS011;25564;53.312;9.790;2022-09-25T02:13:55;40.37;;;14.67;;
39890;SDS011;25564;53.312;9.790;2022-09-25T02:16:38;45.90;;;16.20;;
39890;SDS011;25564;53.312;9.790;2022-09-25T02:19:15;40.27;;;15.53;;
39890;SDS011;25564;53.312;9.790;2022-09-25T02:22:16;43.77;;;15.30;;
39890;SDS011;25564;53.312;9.790;2022-09-25T02:24:55;37.70;;;14.80;;
39890;SDS011;25564;53.312;9.790;2022-09-25T02:27:30;47.83;;;15.80;;
39890;SDS011;25564;53.312;9.790;2022-09-25T02:30:02;49.67;;;16.93;;
39890;SDS011;25564;53.312;9.790;2022-09-25T02:32:34;41.87;;;15.80;;
39890;SDS011;25564;53.312;9.790;2022-09-25T02:35:05;38.80;;;17.20;;
39890;SDS011;25564;53.312;9.790;2022-09-25T02:37:37;44.63;;;16.03;;
39890;SDS011;25564;53.312;9.790;2022-09-25T02:40:08;54.80;;;18.00;;
39890;SDS011;25564;53.312;9.790;2022-09-25T02:48:23;40.67;;;15.00;;
39890;SDS011;25564;53.312;9.790;2022-09-25T02:51:14;50.93;;;17.30;;
39890;SDS011;25564;53.312;9.790;2022-09-25T02:54:00;51.50;;;16.80;;
39890;SDS011;25564;53.312;9.790;2022-09-25T02:56:52;50.53;;;18.13;;
39890;SDS011;25564;53.312;9.790;2022-09-25T02:59:35;54.28;;;16.17;;
39890;SDS011;25564;53.312;9.790;2022-09-25T03:02:11;68.33;;;18.73;;
39890;SDS011;25564;53.312;9.790;2022-09-25T03:04:46;61.27;;;18.07;;
39890;SDS011;25564;53.312;9.790;2022-09-25T03:07:18;64.63;;;18.13;;
39890;SDS011;25564;53.312;9.790;2022-09-25T03:09:50;71.03;;;19.17;;
39890;SDS011;25564;53.312;9.790;2022-09-25T03:12:25;58.43;;;17.70;;
39890;SDS011;25564;53.312;9.790;2022-09-25T03:14:56;78.67;;;20.43;;
39890;SDS011;25564;53.312;9.790;2022-09-25T03:17:27;70.00;;;20.03;;
39890;SDS011;25564;53.312;9.790;2022-09-25T03:19:58;84.30;;;20.20;;
39890;SDS011;25564;53.312;9.790;2022-09-25T03:22:30;57.90;;;19.60;;
39890;SDS011;25564;53.312;9.790;2022-09-25T03:25:02;78.27;;;21.17;;
39890;SDS011;25564;53.312;9.790;2022-09-25T03:27:34;74.57;;;21.47;;
39890;SDS011;25564;53.312;9.790;2022-09-25T03:30:06;83.97;;;22.17;;
39890;SDS011;25564;53.312;9.790;2022-09-25T03:32:38;86.53;;;23.03;;
39890;SDS011;25564;53.312;9.790;2022-09-25T03:35:12;96.37;;;22.00;;
39890;SDS011;25564;53.312;9.790;2022-09-25T03:37:43;78.03;;;22.93;;
39890;SDS011;25564;53.312;9.790;2022-09-25T03:40:14;80.70;;;21.50;;
39890;SDS011;25564;53.312;9.790;2022-09-25T03:42:46;79.50;;;21.00;;
39890;SDS011;25564;53.312;9.790;2022-09-25T03:45:18;92.90;;;23.67;;
39890;SDS011;25564;53.312;9.790;2022-09-25T03:47:49;92.87;;;23.30;;
39890;SDS011;25564;53.312;9.790;2022-09-25T03:50:21;82.93;;;23.20;;
39890;SDS011;25564;53.312;9.790;2022-09-25T03:52:52;109.77;;;23.17;;
39890;SDS011;25564;53.312;9.790;2022-09-25T03:55:23;95.00;;;23.30;;
39890;SDS011;25564;53.312;9.790;2022-09-25T03:57:56;108.10;;;23.47;;
39890;SDS011;25564;53.312;9.790;2022-09-25T04:00:27;90.70;;;22.17;;
39890;SDS011;25564;53.312;9.790;2022-09-25T04:02:58;81.73;;;22.43;;
39890;SDS011;25564;53.312;9.790;2022-09-25T04:05:30;97.30;;;23.50;;
39890;SDS011;25564;53.312;9.790;2022-09-25T04:08:01;88.30;;;20.40;;
39890;SDS011;25564;53.312;9.790;2022-09-25T04:10:32;83.07;;;20.90;;
39890;SDS011;25564;53.312;9.790;2022-09-25T04:13:08;70.88;;;18.80;;
39890;SDS011;25564;53.312;9.790;2022-09-25T04:15:43;68.00;;;19.33;;
39890;SDS011;25564;53.312;9.790;2022-09-25T04:18:14;70.87;;;19.07;;
39890;SDS011;25564;53.312;9.790;2022-09-25T04:20:45;62.43;;;18.27;;
39890;SDS011;25564;53.312;9.790;2022-09-25T04:23:17;64.40;;;20.47;;
39890;SDS011;25564;53.312;9.790;2022-09-25T04:25:48;65.63;;;19.77;;
39890;SDS011;25564;53.312;9.790;2022-09-25T04:28:20;64.50;;;20.07;;
39890;SDS011;25564;53.312;9.790;2022-09-25T04:30:52;63.13;;;19.63;;
39890;SDS011;25564;53.312;9.790;2022-09-25T04:33:23;72.53;;;20.53;;
39890;SDS011;25564;53.312;9.790;2022-09-25T04:36:16;66.37;;;19.17;;
39890;SDS011;25564;53.312;9.790;2022-09-25T04:38:48;69.13;;;21.17;;
39890;SDS011;25564;53.312;9.790;2022-09-25T04:41:20;63.10;;;20.17;;
39890;SDS011;25564;53.312;9.790;2022-09-25T04:43:51;66.27;;;18.80;;
39890;SDS011;25564;53.312;9.790;2022-09-25T04:46:22;70.47;;;20.40;;
39890;SDS011;25564;53.312;9.790;2022-09-25T04:48:54;73.37;;;19.83;;
39890;SDS011;25564;53.312;9.790;2022-09-25T04:51:25;80.43;;;22.00;;
39890;SDS011;25564;53.312;9.790;2022-09-25T04:53:56;68.10;;;21.03;;
39890;SDS011;25564;53.312;9.790;2022-09-25T04:56:28;67.70;;;20.27;;
39890;SDS011;25564;53.312;9.790;2022-09-25T04:58:59;65.97;;;20.03;;
39890;SDS011;25564;53.312;9.790;2022-09-25T05:01:30;64.13;;;20.80;;
39890;SDS011;25564;53.312;9.790;2022-09-25T05:04:02;66.10;;;18.33;;
39890;SDS011;25564;53.312;9.790;2022-09-25T05:06:38;65.97;;;19.03;;
39890;SDS011;25564;53.312;9.790;2022-09-25T05:09:10;71.53;;;19.47;;
39890;SDS011;25564;53.312;9.790;2022-09-25T05:11:41;71.10;;;19.47;;
39890;SDS011;25564;53.312;9.790;2022-09-25T05:14:12;63.83;;;18.90;;
39890;SDS011;25564;53.312;9.790;2022-09-25T05:16:47;36.57;;;12.00;;
39890;SDS011;25564;53.312;9.790;2022-09-25T05:19:18;24.13;;;9.27;;
39890;SDS011;25564;53.312;9.790;2022-09-25T05:21:51;18.03;;;7.47;;
39890;SDS011;25564;53.312;9.790;2022-09-25T05:24:23;15.27;;;6.30;;
39890;SDS011;25564;53.312;9.790;2022-09-25T05:26:54;13.13;;;5.10;;
39890;SDS011;25564;53.312;9.790;2022-09-25T05:29:25;12.90;;;5.10;;
39890;SDS011;25564;53.312;9.790;2022-09-25T05:31:56;11.30;;;4.47;;
39890;SDS011;25564;53.312;9.790;2022-09-25T05:34:28;8.87;;;4.00;;
39890;SDS011;25564;53.312;9.790;2022-09-25T05:36:59;11.50;;;4.50;;
39890;SDS011;25564;53.312;9.790;2022-09-25T05:39:30;10.73;;;4.73;;
39890;SDS011;25564;53.312;9.790;2022-09-25T05:42:01;9.27;;;4.30;;
39890;SDS011;25564;53.312;9.790;2022-09-25T05:44:33;7.53;;;3.90;;
39890;SDS011;25564;53.312;9.790;2022-09-25T05:47:04;8.00;;;3.80;;
39890;SDS011;25564;53.312;9.790;2022-09-25T05:49:37;8.67;;;3.67;;
39890;SDS011;25564;53.312;9.790;2022-09-25T05:52:08;9.17;;;3.70;;
39890;SDS011;25564;53.312;9.790;2022-09-25T05:54:40;6.33;;;3.73;;
39890;SDS011;25564;53.312;9.790;2022-09-25T05:57:11;8.87;;;3.60;;
39890;SDS011;25564;53.312;9.790;2022-09-25T05:59:43;9.10;;;3.50;;
39890;SDS011;25564;53.312;9.790;2022-09-25T06:02:14;6.57;;;3.03;;
39890;SDS011;25564;53.312;9.790;2022-09-25T06:04:46;7.13;;;3.77;;
39890;SDS011;25564;53.312;9.790;2022-09-25T06:07:18;7.57;;;3.87;;
39890;SDS011;25564;53.312;9.790;2022-09-25T06:09:49;7.20;;;4.30;;
39890;SDS011;25564;53.312;9.790;2022-09-25T06:12:21;9.13;;;3.90;;
39890;SDS011;25564;53.312;9.790;2022-09-25T06:14:54;8.30;;;4.37;;
39890;SDS011;25564;53.312;9.790;2022-09-25T06:17:26;9.00;;;3.97;;
39890;SDS011;25564;53.312;9.790;2022-09-25T06:19:57;9.00;;;3.70;;
39890;SDS011;25564;53.312;9.790;2022-09-25T06:22:28;12.70;;;5.10;;
39890;SDS011;25564;53.312;9.790;2022-09-25T06:25:00;11.73;;;4.97;;
39890;SDS011;25564;53.312;9.790;2022-09-25T06:27:31;9.40;;;4.50;;
39890;SDS011;25564;53.312;9.790;2022-09-25T06:30:04;9.60;;;4.77;;
39890;SDS011;25564;53.312;9.790;2022-09-25T06:32:35;8.77;;;4.47;;
39890;SDS011;25564;53.312;9.790;2022-09-25T06:35:08;8.43;;;3.90;;
39890;SDS011;25564;53.312;9.790;2022-09-25T06:37:39;8.07;;;4.03;;
39890;SDS011;25564;53.312;9.790;2022-09-25T06:40:10;6.63;;;3.70;;
39890;SDS011;25564;53.312;9.790;2022-09-25T06:42:42;9.27;;;3.90;;
39890;SDS011;25564;53.312;9.790;2022-09-25T06:45:15;7.37;;;3.70;;
39890;SDS011;25564;53.312;9.790;2022-09-25T06:47:46;9.13;;;4.33;;
39890;SDS011;25564;53.312;9.790;2022-09-25T06:50:17;6.80;;;3.70;;
39890;SDS011;25564;53.312;9.790;2022-09-25T06:52:48;7.50;;;3.23;;
39890;SDS011;25564;53.312;9.790;2022-09-25T06:55:20;5.20;;;3.33;;
39890;SDS011;25564;53.312;9.790;2022-09-25T06:57:51;5.80;;;3.13;;
39890;SDS011;25564;53.312;9.790;2022-09-25T07:00:22;5.00;;;2.80;;
39890;SDS011;25564;53.312;9.790;2022-09-25T07:02:55;4.17;;;2.30;;
39890;SDS011;25564;53.312;9.790;2022-09-25T07:05:46;5.80;;;2.73;;
39890;SDS011;25564;53.312;9.790;2022-09-25T07:08:18;5.23;;;2.57;;
39890;SDS011;25564;53.312;9.790;2022-09-25T07:10:54;5.70;;;2.87;;
39890;SDS011;25564;53.312;9.790;2022-09-25T07:13:28;4.37;;;2.43;;
39890;SDS011;25564;53.312;9.790;2022-09-25T07:16:05;7.20;;;3.30;;
39890;SDS011;25564;53.312;9.790;2022-09-25T07:18:38;5.50;;;2.90;;
39890;SDS011;25564;53.312;9.790;2022-09-25T07:21:10;7.37;;;2.87;;
39890;SDS011;25564;53.312;9.790;2022-09-25T07:23:42;5.83;;;3.03;;
39890;SDS011;25564;53.312;9.790;2022-09-25T07:26:24;6.63;;;2.97;;
39890;SDS011;25564;53.312;9.790;2022-09-25T07:29:03;5.13;;;2.70;;
39890;SDS011;25564;53.312;9.790;2022-09-25T07:31:36;4.13;;;2.57;;
39890;SDS011;25564;53.312;9.790;2022-09-25T07:34:08;4.57;;;2.80;;
39890;SDS011;25564;53.312;9.790;2022-09-25T07:36:40;5.80;;;2.60;;
39890;SDS011;25564;53.312;9.790;2022-09-25T07:39:12;4.90;;;2.83;;
39890;SDS011;25564;53.312;9.790;2022-09-25T07:41:48;4.45;;;2.60;;
39890;SDS011;25564;53.312;9.790;2022-09-25T07:44:20;5.40;;;2.97;;
39890;SDS011;25564;53.312;9.790;2022-09-25T07:47:00;5.77;;;3.03;;
39890;SDS011;25564;53.312;9.790;2022-09-25T07:49:32;8.13;;;3.17;;
39890;SDS011;25564;53.312;9.790;2022-09-25T07:52:05;6.77;;;3.27;;
39890;SDS011;25564;53.312;9.790;2022-09-25T07:54:36;9.03;;;3.90;;
39890;SDS011;25564;53.312;9.790;2022-09-25T07:57:08;7.57;;;3.27;;
39890;SDS011;25564;53.312;9.790;2022-09-25T07:59:39;6.83;;;4.00;;
39890;SDS011;25564;53.312;9.790;2022-09-25T08:02:10;5.93;;;3.47;;
39890;SDS011;25564;53.312;9.790;2022-09-25T08:04:42;6.90;;;4.13;;
39890;SDS011;25564;53.312;9.790;2022-09-25T08:07:13;7.13;;;3.73;;
39890;SDS011;25564;53.312;9.790;2022-09-25T08:09:45;8.63;;;4.50;;
39890;SDS011;25564;53.312;9.790;2022-09-25T08:12:16;9.00;;;4.87;;
39890;SDS011;25564;53.312;9.790;2022-09-25T08:14:48;11.20;;;5.47;;
39890;SDS011;25564;53.312;9.790;2022-09-25T08:17:20;9.53;;;5.07;;
39890;SDS011;25564;53.312;9.790;2022-09-25T08:19:52;12.97;;;5.73;;
39890;SDS011;25564;53.312;9.790;2022-09-25T08:22:23;13.37;;;5.50;;
39890;SDS011;25564;53.312;9.790;2022-09-25T08:24:55;10.10;;;5.27;;
39890;SDS011;25564;53.312;9.790;2022-09-25T08:27:26;9.23;;;5.27;;
39890;SDS011;25564;53.312;9.790;2022-09-25T08:29:57;9.30;;;5.43;;
39890;SDS011;25564;53.312;9.790;2022-09-25T08:32:29;9.73;;;5.53;;
39890;SDS011;25564;53.312;9.790;2022-09-25T08:35:03;17.23;;;6.77;;
39890;SDS011;25564;53.312;9.790;2022-09-25T08:37:38;13.40;;;6.97;;
39890;SDS011;25564;53.312;9.790;2022-09-25T08:42:48;12.37;;;6.57;;
39890;SDS011;25564;53.312;9.790;2022-09-25T08:45:23;12.97;;;7.80;;
39890;SDS011;25564;53.312;9.790;2022-09-25T08:48:18;16.47;;;8.67;;
39890;SDS011;25564;53.312;9.790;2022-09-25T08:51:11;13.03;;;7.57;;
39890;SDS011;25564;53.312;9.790;2022-09-25T08:53:43;17.07;;;7.90;;
39890;SDS011;25564;53.312;9.790;2022-09-25T08:56:16;15.93;;;9.00;;
39890;SDS011;25564;53.312;9.790;2022-09-25T08:59:03;17.63;;;8.87;;
39890;SDS011;25564;53.312;9.790;2022-09-25T09:01:49;15.93;;;9.33;;
39890;SDS011;25564;53.312;9.790;2022-09-25T09:04:31;19.23;;;9.47;;
39890;SDS011;25564;53.312;9.790;2022-09-25T09:07:25;16.03;;;8.87;;
39890;SDS011;25564;53.312;9.790;2022-09-25T09:10:24;16.27;;;8.63;;
39890;SDS011;25564;53.312;9.790;2022-09-25T09:12:59;19.07;;;8.90;;
39890;SDS011;25564;53.312;9.790;2022-09-25T09:15:39;16.03;;;8.43;;
39890;SDS011;25564;53.312;9.790;2022-09-25T09:18:23;17.93;;;8.67;;
39890;SDS011;25564;53.312;9.790;2022-09-25T09:20:57;14.13;;;8.60;;
39890;SDS011;25564;53.312;9.790;2022-09-25T09:29:15;12.03;;;6.57;;
39890;SDS011;25564;53.312;9.790;2022-09-25T09:40:27;13.17;;;5.97;;
39890;SDS011;25564;53.312;9.790;2022-09-25T09:43:39;10.15;;;5.88;;
39890;SDS011;25564;53.312;9.790;2022-09-25T09:51:57;10.33;;;6.73;;
39890;SDS011;25564;53.312;9.790;2022-09-25T09:54:42;11.57;;;6.77;;
39890;SDS011;25564;53.312;9.790;2022-09-25T09:57:20;11.63;;;6.80;;
39890;SDS011;25564;53.312;9.790;2022-09-25T09:59:54;10.93;;;6.67;;
39890;SDS011;25564;53.312;9.790;2022-09-25T10:02:36;13.20;;;7.73;;
39890;SDS011;25564;53.312;9.790;2022-09-25T10:05:19;11.82;;;7.22;;
39890;SDS011;25564;53.312;9.790;2022-09-25T10:08:22;12.20;;;7.27;;
39890;SDS011;25564;53.312;9.790;2022-09-25T10:10:54;13.10;;;7.63;;
39890;SDS011;25564;53.312;9.790;2022-09-25T10:13:30;15.73;;;7.75;;
39890;SDS011;25564;53.312;9.790;2022-09-25T10:16:05;12.93;;;7.40;;
39890;SDS011;25564;53.312;9.790;2022-09-25T10:21:20;14.53;;;7.67;;
39890;SDS011;25564;53.312;9.790;2022-09-25T10:23:54;13.20;;;8.10;;
39890;SDS011;25564;53.312;9.790;2022-09-25T10:29:04;11.50;;;7.20;;
39890;SDS011;25564;53.312;9.790;2022-09-25T10:32:00;11.77;;;6.93;;
39890;SDS011;25564;53.312;9.790;2022-09-25T10:34:33;13.53;;;7.67;;
39890;SDS011;25564;53.312;9.790;2022-09-25T10:37:13;12.13;;;7.73;;
39890;SDS011;25564;53.312;9.790;2022-09-25T10:40:06;13.80;;;7.63;;
39890;SDS011;25564;53.312;9.790;2022-09-25T10:43:00;13.30;;;7.27;;
39890;SDS011;25564;53.312;9.790;2022-09-25T10:46:13;13.17;;;7.40;;
39890;SDS011;25564;53.312;9.790;2022-09-25T10:48:45;15.20;;;7.30;;
39890;SDS011;25564;53.312;9.790;2022-09-25T10:51:35;12.13;;;7.53;;
39890;SDS011;25564;53.312;9.790;2022-09-25T10:54:11;14.97;;;8.93;;
39890;SDS011;25564;53.312;9.790;2022-09-25T10:56:43;15.73;;;8.00;;
39890;SDS011;25564;53.312;9.790;2022-09-25T11:01:51;13.80;;;6.72;;
39890;SDS011;25564;53.312;9.790;2022-09-25T11:04:26;15.73;;;7.20;;
39890;SDS011;25564;53.312;9.790;2022-09-25T11:07:01;11.07;;;6.80;;
39890;SDS011;25564;53.312;9.790;2022-09-25T11:09:41;16.23;;;7.87;;
39890;SDS011;25564;53.312;9.790;2022-09-25T11:12:16;12.10;;;7.27;;
39890;SDS011;25564;53.312;9.790;2022-09-25T11:14:54;13.43;;;6.63;;
39890;SDS011;25564;53.312;9.790;2022-09-25T11:17:38;9.73;;;6.03;;
39890;SDS011;25564;53.312;9.790;2022-09-25T11:23:13;13.87;;;6.40;;
39890;SDS011;25564;53.312;9.790;2022-09-25T11:28:50;9.37;;;5.87;;
39890;SDS011;25564;53.312;9.790;2022-09-25T11:31:34;11.90;;;4.20;;
39890;SDS011;25564;53.312;9.790;2022-09-25T11:39:53;9.93;;;5.03;;
39890;SDS011;25564;53.312;9.790;2022-09-25T11:43:06;8.50;;;4.80;;
39890;SDS011;25564;53.312;9.790;2022-09-25T11:45:46;10.00;;;5.80;;
39890;SDS011;25564;53.312;9.790;2022-09-25T11:48:32;12.80;;;5.03;;
39890;SDS011;25564;53.312;9.790;2022-09-25T11:54:07;8.63;;;4.13;;
39890;SDS011;25564;53.312;9.790;2022-09-25T11:57:18;8.00;;;4.40;;
39890;SDS011;25564;53.312;9.790;2022-09-25T12:00:16;8.77;;;4.27;;
39890;SDS011;25564;53.312;9.790;2022-09-25T12:05:44;8.57;;;3.77;;
39890;SDS011;25564;53.312;9.790;2022-09-25T12:08:39;8.57;;;3.90;;
39890;SDS011;25564;53.312;9.790;2022-09-25T12:11:23;7.03;;;3.83;;
39890;SDS011;25564;53.312;9.790;2022-09-25T12:14:10;7.37;;;3.40;;
39890;SDS011;25564;53.312;9.790;2022-09-25T12:17:02;6.07;;;3.63;;
39890;SDS011;25564;53.312;9.790;2022-09-25T12:20:02;9.17;;;3.53;;
39890;SDS011;25564;53.312;9.790;2022-09-25T12:22:49;7.57;;;3.73;;
39890;SDS011;25564;53.312;9.790;2022-09-25T12:25:54;6.77;;;3.40;;
39890;SDS011;25564;53.312;9.790;2022-09-25T12:37:46;13.10;;;6.77;;
39890;SDS011;25564;53.312;9.790;2022-09-25T12:40:24;6.93;;;4.60;;
39890;SDS011;25564;53.312;9.790;2022-09-25T12:43:09;6.67;;;4.23;;
39890;SDS011;25564;53.312;9.790;2022-09-25T12:51:45;6.57;;;4.20;;
39890;SDS011;25564;53.312;9.790;2022-09-25T12:57:33;8.13;;;3.50;;
39890;SDS011;25564;53.312;9.790;2022-09-25T13:00:17;7.67;;;3.30;;
39890;SDS011;25564;53.312;9.790;2022-09-25T13:02:53;6.10;;;3.33;;
39890;SDS011;25564;53.312;9.790;2022-09-25T13:05:34;4.10;;;2.33;;
39890;SDS011;25564;53.312;9.790;2022-09-25T13:08:16;4.80;;;2.53;;
39890;SDS011;25564;53.312;9.790;2022-09-25T13:10:55;6.53;;;2.77;;
39890;SDS011;25564;53.312;9.790;2022-09-25T13:13:31;7.70;;;2.50;;
39890;SDS011;25564;53.312;9.790;2022-09-25T13:16:10;8.23;;;2.60;;
39890;SDS011;25564;53.312;9.790;2022-09-25T13:18:45;5.03;;;1.97;;
39890;SDS011;25564;53.312;9.790;2022-09-25T13:21:38;11.33;;;2.30;;
39890;SDS011;25564;53.312;9.790;2022-09-25T13:24:13;3.75;;;1.50;;
39890;SDS011;25564;53.312;9.790;2022-09-25T13:26:50;2.93;;;2.03;;
39890;SDS011;25564;53.312;9.790;2022-09-25T13:29:25;4.15;;;1.52;;
39890;SDS011;25564;53.312;9.790;2022-09-25T13:32:07;4.88;;;1.20;;
39890;SDS011;25564;53.312;9.790;2022-09-25T13:34:43;8.63;;;1.63;;
39890;SDS011;25564;53.312;9.790;2022-09-25T13:37:16;4.37;;;1.33;;
39890;SDS011;25564;53.312;9.790;2022-09-25T13:39:48;5.40;;;1.53;;
39890;SDS011;25564;53.312;9.790;2022-09-25T13:42:42;5.17;;;1.10;;
39890;SDS011;25564;53.312;9.790;2022-09-25T13:48:08;4.83;;;1.40;;
39890;SDS011;25564;53.312;9.790;2022-09-25T13:50:45;4.23;;;1.20;;
39890;SDS011;25564;53.312;9.790;2022-09-25T13:53:22;2.60;;;0.93;;
39890;SDS011;25564;53.312;9.790;2022-09-25T13:58:57;5.67;;;1.20;;
39890;SDS011;25564;53.312;9.790;2022-09-25T14:01:39;3.27;;;1.23;;
39890;SDS011;25564;53.312;9.790;2022-09-25T14:06:48;4.47;;;1.20;;
39890;SDS011;25564;53.312;9.790;2022-09-25T14:09:24;3.47;;;1.63;;
39890;SDS011;25564;53.312;9.790;2022-09-25T14:12:12;5.60;;;1.33;;
39890;SDS011;25564;53.312;9.790;2022-09-25T14:15:02;7.13;;;2.03;;
39890;SDS011;25564;53.312;9.790;2022-09-25T14:17:39;5.53;;;1.30;;
39890;SDS011;25564;53.312;9.790;2022-09-25T14:22:57;7.40;;;1.00;;
39890;SDS011;25564;53.312;9.790;2022-09-25T14:25:35;5.13;;;0.90;;
39890;SDS011;25564;53.312;9.790;2022-09-25T14:28:18;1.83;;;1.00;;
39890;SDS011;25564;53.312;9.790;2022-09-25T14:31:05;7.23;;;1.00;;
39890;SDS011;25564;53.312;9.790;2022-09-25T14:33:48;4.77;;;1.70;;
39890;SDS011;25564;53.312;9.790;2022-09-25T14:40:12;4.87;;;1.23;;
39890;SDS011;25564;53.312;9.790;2022-09-25T14:45:44;6.57;;;1.50;;
39890;SDS011;25564;53.312;9.790;2022-09-25T14:48:45;4.27;;;1.17;;
39890;SDS011;25564;53.312;9.790;2022-09-25T14:51:32;4.70;;;1.40;;
39890;SDS011;25564;53.312;9.790;2022-09-25T14:54:12;3.53;;;1.10;;
39890;SDS011;25564;53.312;9.790;2022-09-25T14:56:48;4.63;;;0.80;;
39890;SDS011;25564;53.312;9.790;2022-09-25T15:02:13;5.20;;;0.90;;
39890;SDS011;25564;53.312;9.790;2022-09-25T15:04:48;7.13;;;1.50;;
39890;SDS011;25564;53.312;9.790;2022-09-25T15:07:24;4.37;;;0.73;;
39890;SDS011;25564;53.312;9.790;2022-09-25T15:09:57;9.00;;;0.80;;
39890;SDS011;25564;53.312;9.790;2022-09-25T15:12:31;5.13;;;2.33;;
39890;SDS011;25564;53.312;9.790;2022-09-25T15:15:09;2.50;;;0.75;;
39890;SDS011;25564;53.312;9.790;2022-09-25T15:20:23;7.40;;;1.57;;
39890;SDS011;25564;53.312;9.790;2022-09-25T15:23:05;6.20;;;2.33;;
39890;SDS011;25564;53.312;9.790;2022-09-25T15:25:41;7.67;;;1.27;;
39890;SDS011;25564;53.312;9.790;2022-09-25T15:28:16;4.63;;;1.98;;
39890;SDS011;25564;53.312;9.790;2022-09-25T15:30:58;5.27;;;2.27;;
39890;SDS011;25564;53.312;9.790;2022-09-25T15:33:32;3.93;;;1.40;;
39890;SDS011;25564;53.312;9.790;2022-09-25T15:36:15;5.00;;;1.52;;
39890;SDS011;25564;53.312;9.790;2022-09-25T15:38:55;4.33;;;1.53;;
39890;SDS011;25564;53.312;9.790;2022-09-25T15:41:30;2.73;;;1.03;;
39890;SDS011;25564;53.312;9.790;2022-09-25T15:44:23;7.13;;;1.87;;
39890;SDS011;25564;53.312;9.790;2022-09-25T15:46:57;5.73;;;1.23;;
39890;SDS011;25564;53.312;9.790;2022-09-25T15:49:32;3.73;;;0.87;;
39890;SDS011;25564;53.312;9.790;2022-09-25T15:52:15;2.13;;;0.90;;
39890;SDS011;25564;53.312;9.790;2022-09-25T15:55:00;3.63;;;0.83;;
39890;SDS011;25564;53.312;9.790;2022-09-25T16:00:08;2.83;;;1.20;;
39890;SDS011;25564;53.312;9.790;2022-09-25T16:03:14;4.17;;;1.00;;
39890;SDS011;25564;53.312;9.790;2022-09-25T16:06:12;5.87;;;1.23;;
39890;SDS011;25564;53.312;9.790;2022-09-25T16:08:45;2.77;;;1.33;;
39890;SDS011;25564;53.312;9.790;2022-09-25T16:11:21;2.73;;;0.93;;
39890;SDS011;25564;53.312;9.790;2022-09-25T16:16:59;6.33;;;1.50;;
39890;SDS011;25564;53.312;9.790;2022-09-25T16:19:31;5.23;;;1.40;;
39890;SDS011;25564;53.312;9.790;2022-09-25T16:22:12;7.30;;;1.30;;
39890;SDS011;25564;53.312;9.790;2022-09-25T16:24:50;5.63;;;1.55;;
39890;SDS011;25564;53.312;9.790;2022-09-25T16:27:27;1.60;;;0.70;;
39890;SDS011;25564;53.312;9.790;2022-09-25T16:30:03;9.27;;;1.10;;
39890;SDS011;25564;53.312;9.790;2022-09-25T16:32:35;5.73;;;0.80;;
39890;SDS011;25564;53.312;9.790;2022-09-25T16:35:06;4.83;;;1.10;;
39890;SDS011;25564;53.312;9.790;2022-09-25T16:37:51;3.13;;;0.83;;
39890;SDS011;25564;53.312;9.790;2022-09-25T16:40:24;2.37;;;0.80;;
39890;SDS011;25564;53.312;9.790;2022-09-25T16:43:08;7.33;;;1.20;;
39890;SDS011;25564;53.312;9.790;2022-09-25T16:45:59;4.10;;;1.57;;
39890;SDS011;25564;53.312;9.790;2022-09-25T16:48:35;2.97;;;1.10;;
39890;SDS011;25564;53.312;9.790;2022-09-25T16:51:18;8.47;;;1.17;;
39890;SDS011;25564;53.312;9.790;2022-09-25T16:53:52;5.40;;;1.30;;
39890;SDS011;25564;53.312;9.790;2022-09-25T16:56:28;5.20;;;1.33;;
39890;SDS011;25564;53.312;9.790;2022-09-25T16:59:01;3.27;;;1.20;;
39890;SDS011;25564;53.312;9.790;2022-09-25T17:01:35;3.80;;;0.80;;
39890;SDS011;25564;53.312;9.790;2022-09-25T17:04:09;3.17;;;1.30;;
39890;SDS011;25564;53.312;9.790;2022-09-25T17:06:42;4.63;;;1.43;;
39890;SDS011;25564;53.312;9.790;2022-09-25T17:09:16;7.27;;;2.37;;
39890;SDS011;25564;53.312;9.790;2022-09-25T17:11:47;8.43;;;2.70;;
39890;SDS011;25564;53.312;9.790;2022-09-25T17:14:23;3.20;;;1.57;;
39890;SDS011;25564;53.312;9.790;2022-09-25T17:16:56;5.85;;;2.03;;
39890;SDS011;25564;53.312;9.790;2022-09-25T17:19:29;5.47;;;1.77;;
39890;SDS011;25564;53.312;9.790;2022-09-25T17:22:00;3.27;;;1.60;;